Summit City, California
Current Conditions -  °F | °C
As of 2:53 AM on Sunday 21 Dec 2014 (Local Time) from KRDD Reporting Station
Haze Haze  
Wind Chill: 53°   Ceiling: 800
Heat Index: 53°   Visibility: 4mi
Dew Point: 52°   Wind: 9mph
Humidity: 96%   Direction: 200°SSW
Pressure: 30.24"   Gusts: NA
Location:  40.6873°N, 122.399°W
Report Text: KRDD 211053Z 20008KT 4SM BR OVC008 12/11 A3024 RMK AO2 CIG 006V011 SLP238 T01170111
Loading
Personal Weather Stations






























Interactive Weather Map New forecast layout! Learn more

10-Day Weather Forecast

Advertisements
Track Severe Weather on mobile